UPS2981 KBFI-KSDF
Flight info
| Callsign | UPS2981 |
|---|---|
| Flight time | N/A |
| Altitude | 37000 |
| Route | ZADON ZELAK ZIRAN ZAXBY BLOWS BIL KD90U KP81A KP69G DSM SHARE JMONY2 |
| Aircraft | B752/M-SDE2E3FGHIJ3J4J7RWXY/LB1 |
Departure
| Time | 2026-05-04 12:42 |
|---|---|
| Airport | King County International Airport - Boeing Field (KBFI) |
Arrival
| Time | N/A |
|---|---|
| Airport | Louisville Muhammad Ali International Airport (KSDF) |
| Time | Latitude | Longitude | Altitude | Speed | Heading |
|---|---|---|---|---|---|
| 2026-05-04 12:14 | 47.53679 | -122.30472 | 28 ft | 0 kts | 50° |
| 2026-05-04 12:24 | 47.53679 | -122.30471 | 28 ft | 0 kts | 50° |
| 2026-05-04 12:25 | 47.53680 | -122.30471 | 28 ft | 0 kts | 50° |
| 2026-05-04 12:25 | 47.53679 | -122.30471 | 28 ft | 1 kts | 50° |
| 2026-05-04 12:25 | 47.53671 | -122.30486 | 28 ft | 2 kts | 50° |
| 2026-05-04 12:26 | 47.53660 | -122.30505 | 28 ft | 0 kts | 50° |
| 2026-05-04 12:27 | 47.53661 | -122.30505 | 28 ft | 0 kts | 50° |
| 2026-05-04 12:28 | 47.53661 | -122.30504 | 28 ft | 0 kts | 50° |
| 2026-05-04 12:31 | 47.53661 | -122.30503 | 28 ft | 0 kts | 50° |
| 2026-05-04 12:32 | 47.53662 | -122.30503 | 28 ft | 0 kts | 50° |
| 2026-05-04 12:34 | 47.53662 | -122.30502 | 28 ft | 0 kts | 50° |
| 2026-05-04 12:37 | 47.53662 | -122.30501 | 28 ft | 0 kts | 50° |
| 2026-05-04 12:37 | 47.53663 | -122.30501 | 28 ft | 0 kts | 50° |
| 2026-05-04 12:38 | 47.53660 | -122.30505 | 28 ft | 2 kts | 50° |
| 2026-05-04 12:38 | 47.53649 | -122.30522 | 28 ft | 3 kts | 37° |
| 2026-05-04 12:38 | 47.53632 | -122.30536 | 28 ft | 3 kts | 20° |
| 2026-05-04 12:38 | 47.53628 | -122.30538 | 28 ft | 1 kts | 8° |
| 2026-05-04 12:39 | 47.53646 | -122.30550 | 28 ft | 5 kts | 330° |
| 2026-05-04 12:39 | 47.53690 | -122.30586 | 28 ft | 9 kts | 332° |
| 2026-05-04 12:39 | 47.53762 | -122.30642 | 28 ft | 14 kts | 332° |
| 2026-05-04 12:39 | 47.53858 | -122.30717 | 28 ft | 17 kts | 332° |
| 2026-05-04 12:40 | 47.53960 | -122.30799 | 28 ft | 15 kts | 330° |
| 2026-05-04 12:40 | 47.54042 | -122.30870 | 28 ft | 10 kts | 327° |
| 2026-05-04 12:40 | 47.54101 | -122.30943 | 28 ft | 11 kts | 294° |
| 2026-05-04 12:40 | 47.54080 | -122.31046 | 28 ft | 9 kts | 234° |
| 2026-05-04 12:41 | 47.54074 | -122.31058 | 28 ft | 0 kts | 234° |
| 2026-05-04 12:41 | 47.54069 | -122.31068 | 28 ft | 4 kts | 234° |
| 2026-05-04 12:41 | 47.54050 | -122.31108 | 28 ft | 7 kts | 234° |
| 2026-05-04 12:41 | 47.54005 | -122.31126 | 28 ft | 8 kts | 155° |
| 2026-05-04 12:42 | 47.53935 | -122.31063 | 28 ft | 40 kts | 149° |
| 2026-05-04 12:42 | 47.53439 | -122.30645 | 28 ft | 122 kts | 150° |
| 2026-05-04 12:42 | 47.52529 | -122.29873 | 273 ft | 167 kts | 150° |
| 2026-05-04 12:42 | 47.51474 | -122.28942 | 939 ft | 179 kts | 149° |
| 2026-05-04 12:43 | 47.50372 | -122.28106 | 1432 ft | 182 kts | 156° |
| 2026-05-04 12:43 | 47.49133 | -122.27637 | 1840 ft | 191 kts | 171° |
| 2026-05-04 12:43 | 47.47740 | -122.27506 | 2370 ft | 212 kts | 178° |
| 2026-05-04 12:43 | 47.46159 | -122.27535 | 2864 ft | 233 kts | 186° |
| 2026-05-04 12:44 | 47.44702 | -122.28279 | 3145 ft | 217 kts | 208° |
| 2026-05-04 12:44 | 47.43427 | -122.29507 | 3081 ft | 219 kts | 214° |
| 2026-05-04 12:44 | 47.42160 | -122.30739 | 3122 ft | 216 kts | 214° |
| 2026-05-04 12:44 | 47.40914 | -122.31928 | 3264 ft | 208 kts | 213° |
| 2026-05-04 12:45 | 47.39732 | -122.33030 | 3517 ft | 194 kts | 213° |
| 2026-05-04 12:45 | 47.38641 | -122.34037 | 3758 ft | 179 kts | 213° |
| 2026-05-04 12:45 | 47.37547 | -122.34754 | 3959 ft | 166 kts | 187° |
| 2026-05-04 12:45 | 47.36414 | -122.34562 | 4274 ft | 175 kts | 169° |
| 2026-05-04 12:46 | 47.35164 | -122.33949 | 4604 ft | 200 kts | 152° |
| 2026-05-04 12:46 | 47.34174 | -122.32504 | 4874 ft | 206 kts | 118° |
| 2026-05-04 12:46 | 47.33922 | -122.30436 | 5159 ft | 210 kts | 83° |
| 2026-05-04 12:46 | 47.34418 | -122.28409 | 5472 ft | 213 kts | 63° |
| 2026-05-04 12:47 | 47.35162 | -122.26492 | 5757 ft | 216 kts | 58° |
| 2026-05-04 12:47 | 47.35952 | -122.24610 | 6032 ft | 216 kts | 57° |
| 2026-05-04 12:47 | 47.36750 | -122.22739 | 6305 ft | 215 kts | 57° |
| 2026-05-04 12:47 | 47.37624 | -122.20950 | 6575 ft | 215 kts | 48° |
| 2026-05-04 12:48 | 47.38672 | -122.19370 | 6855 ft | 216 kts | 43° |
| 2026-05-04 12:48 | 47.39767 | -122.17847 | 7131 ft | 217 kts | 42° |
| 2026-05-04 12:48 | 47.40875 | -122.16332 | 7407 ft | 218 kts | 42° |
| 2026-05-04 12:48 | 47.41976 | -122.14839 | 7838 ft | 212 kts | 42° |
| 2026-05-04 12:49 | 47.43075 | -122.13354 | 8317 ft | 216 kts | 42° |
| 2026-05-04 12:49 | 47.44197 | -122.11838 | 8799 ft | 221 kts | 42° |
| 2026-05-04 12:49 | 47.45342 | -122.10293 | 9279 ft | 224 kts | 42° |
| 2026-05-04 12:49 | 47.46502 | -122.08734 | 9756 ft | 226 kts | 42° |
| 2026-05-04 12:50 | 47.47674 | -122.07161 | 10233 ft | 229 kts | 42° |
| 2026-05-04 12:50 | 47.48865 | -122.05566 | 10711 ft | 232 kts | 42° |
| 2026-05-04 12:50 | 47.50078 | -122.03945 | 11074 ft | 240 kts | 42° |
| 2026-05-04 12:50 | 47.51369 | -122.02220 | 11404 ft | 272 kts | 42° |
| 2026-05-04 12:51 | 47.52892 | -122.00187 | 11743 ft | 312 kts | 42° |
| 2026-05-04 12:51 | 47.54448 | -121.97848 | 12038 ft | 324 kts | 54° |
| 2026-05-04 12:51 | 47.55382 | -121.94809 | 12385 ft | 330 kts | 77° |
| 2026-05-04 12:51 | 47.55609 | -121.91375 | 12785 ft | 338 kts | 90° |
| 2026-05-04 12:52 | 47.55555 | -121.87873 | 13170 ft | 342 kts | 93° |
| 2026-05-04 12:52 | 47.55509 | -121.84339 | 13546 ft | 345 kts | 91° |
| 2026-05-04 12:52 | 47.55593 | -121.80808 | 13920 ft | 348 kts | 87° |
| 2026-05-04 12:52 | 47.55799 | -121.77228 | 14298 ft | 350 kts | 85° |
| 2026-05-04 12:53 | 47.56006 | -121.73619 | 14675 ft | 352 kts | 86° |
| 2026-05-04 12:53 | 47.56144 | -121.69979 | 15053 ft | 354 kts | 88° |
| 2026-05-04 12:53 | 47.56199 | -121.66335 | 15430 ft | 356 kts | 90° |
| 2026-05-04 12:53 | 47.56190 | -121.62666 | 15806 ft | 357 kts | 91° |
| 2026-05-04 12:54 | 47.56150 | -121.58977 | 16183 ft | 359 kts | 92° |
| 2026-05-04 12:54 | 47.56095 | -121.55274 | 16559 ft | 361 kts | 92° |
| 2026-05-04 12:54 | 47.56034 | -121.51556 | 16935 ft | 362 kts | 92° |
| 2026-05-04 12:54 | 47.55970 | -121.47813 | 17311 ft | 364 kts | 92° |
| 2026-05-04 12:55 | 47.55904 | -121.44054 | 17688 ft | 366 kts | 92° |
| 2026-05-04 12:55 | 47.55833 | -121.40283 | 18064 ft | 367 kts | 92° |
| 2026-05-04 12:55 | 47.55759 | -121.36495 | 18439 ft | 369 kts | 92° |
| 2026-05-04 12:55 | 47.55687 | -121.32691 | 18815 ft | 371 kts | 92° |
| 2026-05-04 12:56 | 47.55618 | -121.28867 | 19190 ft | 373 kts | 92° |
| 2026-05-04 12:56 | 47.55551 | -121.25010 | 19567 ft | 375 kts | 92° |
| 2026-05-04 12:56 | 47.55488 | -121.21137 | 19943 ft | 377 kts | 92° |
| 2026-05-04 12:56 | 47.55429 | -121.17234 | 20320 ft | 380 kts | 92° |
| 2026-05-04 12:57 | 47.55373 | -121.13318 | 20696 ft | 382 kts | 92° |
| 2026-05-04 12:57 | 47.55320 | -121.09377 | 21073 ft | 384 kts | 92° |
| 2026-05-04 12:57 | 47.55256 | -121.05406 | 21449 ft | 386 kts | 92° |
| 2026-05-04 12:57 | 47.55176 | -121.01422 | 21825 ft | 389 kts | 93° |
| 2026-05-04 12:58 | 47.55090 | -120.97405 | 22202 ft | 391 kts | 93° |
| 2026-05-04 12:58 | 47.55003 | -120.93379 | 22577 ft | 394 kts | 93° |
| 2026-05-04 12:58 | 47.54917 | -120.89311 | 22954 ft | 396 kts | 92° |
| 2026-05-04 12:58 | 47.54840 | -120.85226 | 23330 ft | 399 kts | 93° |
| 2026-05-04 12:59 | 47.54759 | -120.81159 | 23702 ft | 401 kts | 93° |
| 2026-05-04 12:59 | 47.54675 | -120.77016 | 24078 ft | 404 kts | 93° |
| 2026-05-04 12:59 | 47.54591 | -120.72848 | 24455 ft | 406 kts | 93° |
| 2026-05-04 12:59 | 47.54509 | -120.68657 | 24831 ft | 409 kts | 93° |
| 2026-05-04 13:00 | 47.54431 | -120.64435 | 25208 ft | 411 kts | 93° |
| 2026-05-04 13:00 | 47.54353 | -120.60194 | 25585 ft | 413 kts | 93° |
| 2026-05-04 13:00 | 47.54258 | -120.55943 | 25961 ft | 415 kts | 94° |
| 2026-05-04 13:00 | 47.54154 | -120.51666 | 26337 ft | 417 kts | 94° |
| 2026-05-04 13:01 | 47.54049 | -120.47373 | 26713 ft | 419 kts | 94° |
| 2026-05-04 13:01 | 47.53947 | -120.43054 | 27090 ft | 420 kts | 94° |
| 2026-05-04 13:01 | 47.53867 | -120.38713 | 27467 ft | 422 kts | 93° |
| 2026-05-04 13:01 | 47.53805 | -120.34362 | 27843 ft | 424 kts | 93° |
| 2026-05-04 13:02 | 47.53737 | -120.29994 | 28218 ft | 426 kts | 94° |
| 2026-05-04 13:02 | 47.53666 | -120.25599 | 28595 ft | 428 kts | 94° |
| 2026-05-04 13:02 | 47.53597 | -120.21189 | 28971 ft | 429 kts | 94° |
| 2026-05-04 13:02 | 47.53532 | -120.16756 | 29348 ft | 431 kts | 94° |
| 2026-05-04 13:03 | 47.53473 | -120.12312 | 29724 ft | 433 kts | 94° |
| 2026-05-04 13:03 | 47.53403 | -120.07837 | 30101 ft | 435 kts | 94° |
| 2026-05-04 13:03 | 47.53322 | -120.03413 | 30472 ft | 437 kts | 94° |
| 2026-05-04 13:03 | 47.53232 | -119.98912 | 30847 ft | 439 kts | 95° |
| 2026-05-04 13:04 | 47.53148 | -119.94373 | 31224 ft | 441 kts | 94° |
| 2026-05-04 13:04 | 47.53078 | -119.89810 | 31601 ft | 444 kts | 94° |
| 2026-05-04 13:04 | 47.53004 | -119.85220 | 31977 ft | 447 kts | 94° |
| 2026-05-04 13:04 | 47.52915 | -119.80626 | 32352 ft | 447 kts | 94° |
| 2026-05-04 13:05 | 47.52823 | -119.76022 | 32727 ft | 447 kts | 94° |
| 2026-05-04 13:05 | 47.52736 | -119.71430 | 33101 ft | 447 kts | 94° |
| 2026-05-04 13:05 | 47.52647 | -119.66809 | 33477 ft | 449 kts | 94° |
| 2026-05-04 13:05 | 47.52556 | -119.62196 | 33852 ft | 450 kts | 94° |
| 2026-05-04 13:06 | 47.52463 | -119.57568 | 34226 ft | 449 kts | 94° |
| 2026-05-04 13:06 | 47.52356 | -119.52956 | 34600 ft | 449 kts | 94° |
| 2026-05-04 13:06 | 47.52245 | -119.48328 | 34975 ft | 451 kts | 94° |
| 2026-05-04 13:06 | 47.52145 | -119.43667 | 35330 ft | 453 kts | 94° |
| 2026-05-04 13:07 | 47.52042 | -119.39065 | 35656 ft | 455 kts | 94° |
| 2026-05-04 13:07 | 47.51938 | -119.34387 | 35982 ft | 454 kts | 94° |
| 2026-05-04 13:07 | 47.51818 | -119.29720 | 36293 ft | 454 kts | 94° |
| 2026-05-04 13:07 | 47.51706 | -119.25037 | 36540 ft | 456 kts | 94° |
| 2026-05-04 13:08 | 47.51589 | -119.20340 | 36740 ft | 458 kts | 94° |
| 2026-05-04 13:08 | 47.51465 | -119.15609 | 36861 ft | 461 kts | 94° |
| 2026-05-04 13:08 | 47.51350 | -119.10848 | 36927 ft | 462 kts | 94° |
| 2026-05-04 13:09 | 47.51098 | -119.01366 | 36917 ft | 461 kts | 94° |
| 2026-05-04 13:09 | 47.50838 | -118.91883 | 36913 ft | 460 kts | 94° |
| 2026-05-04 13:10 | 47.50578 | -118.82411 | 36913 ft | 461 kts | 94° |
| 2026-05-04 13:10 | 47.50319 | -118.72946 | 36912 ft | 461 kts | 94° |
| 2026-05-04 13:11 | 47.50064 | -118.63533 | 36912 ft | 461 kts | 94° |
| 2026-05-04 13:11 | 47.49787 | -118.54051 | 36912 ft | 462 kts | 95° |
| 2026-05-04 13:12 | 47.49483 | -118.44560 | 36912 ft | 462 kts | 95° |
| 2026-05-04 13:12 | 47.49182 | -118.35058 | 36912 ft | 463 kts | 95° |
| 2026-05-04 13:13 | 47.48870 | -118.25554 | 36912 ft | 463 kts | 95° |
| 2026-05-04 13:13 | 47.48550 | -118.16034 | 36912 ft | 463 kts | 95° |
| 2026-05-04 13:14 | 47.48212 | -118.06563 | 36912 ft | 464 kts | 95° |
| 2026-05-04 13:14 | 47.47876 | -117.97044 | 36912 ft | 464 kts | 95° |
| 2026-05-04 13:15 | 47.47545 | -117.87508 | 36912 ft | 465 kts | 95° |
| 2026-05-04 13:15 | 47.47212 | -117.77957 | 36912 ft | 465 kts | 95° |
| 2026-05-04 13:16 | 47.46882 | -117.68401 | 36912 ft | 465 kts | 95° |
| 2026-05-04 13:16 | 47.46481 | -117.58857 | 36912 ft | 465 kts | 96° |
| 2026-05-04 13:17 | 47.45904 | -117.49335 | 36912 ft | 465 kts | 98° |
| 2026-05-04 13:17 | 47.45236 | -117.39835 | 36912 ft | 465 kts | 98° |
| 2026-05-04 13:18 | 47.44596 | -117.30390 | 36912 ft | 465 kts | 98° |
| 2026-05-04 13:18 | 47.43961 | -117.20869 | 36912 ft | 465 kts | 98° |
| 2026-05-04 13:19 | 47.43331 | -117.11351 | 36912 ft | 465 kts | 98° |
| 2026-05-04 13:19 | 47.42686 | -117.01841 | 36911 ft | 466 kts | 98° |
| 2026-05-04 13:20 | 47.42001 | -116.92321 | 36912 ft | 466 kts | 98° |
| 2026-05-04 13:20 | 47.41339 | -116.82797 | 36912 ft | 467 kts | 98° |
| 2026-05-04 13:21 | 47.40766 | -116.74868 | 36912 ft | 467 kts | 98° |
| 2026-05-04 13:21 | 47.40085 | -116.65324 | 36912 ft | 467 kts | 98° |
| 2026-05-04 13:22 | 47.39376 | -116.55777 | 36912 ft | 468 kts | 98° |
| 2026-05-04 13:22 | 47.38665 | -116.46222 | 36920 ft | 469 kts | 98° |
| 2026-05-04 13:23 | 47.37956 | -116.36670 | 36923 ft | 469 kts | 98° |
| 2026-05-04 13:23 | 47.37246 | -116.27085 | 36926 ft | 470 kts | 98° |
| 2026-05-04 13:24 | 47.36542 | -116.17565 | 36929 ft | 470 kts | 98° |
| 2026-05-04 13:24 | 47.35834 | -116.07961 | 36933 ft | 470 kts | 98° |
| 2026-05-04 13:25 | 47.34689 | -115.93587 | 36937 ft | 470 kts | 99° |
| 2026-05-04 13:25 | 47.33947 | -115.84033 | 36940 ft | 471 kts | 99° |
| 2026-05-04 13:26 | 47.33172 | -115.74429 | 36941 ft | 472 kts | 99° |
| 2026-05-04 13:26 | 47.32388 | -115.64822 | 36941 ft | 472 kts | 99° |
| 2026-05-04 13:27 | 47.31608 | -115.55218 | 36939 ft | 472 kts | 99° |
| 2026-05-04 13:27 | 47.30830 | -115.45595 | 36936 ft | 472 kts | 99° |
| 2026-05-04 13:28 | 47.30054 | -115.35986 | 36931 ft | 472 kts | 99° |
| 2026-05-04 13:28 | 47.29224 | -115.26391 | 36924 ft | 472 kts | 99° |
| 2026-05-04 13:29 | 47.28420 | -115.16815 | 36918 ft | 471 kts | 99° |
| 2026-05-04 13:29 | 47.27589 | -115.07233 | 36913 ft | 471 kts | 99° |
| 2026-05-04 13:30 | 47.26608 | -114.97768 | 36913 ft | 470 kts | 104° |
| 2026-05-04 13:30 | 47.24990 | -114.88479 | 36915 ft | 468 kts | 109° |
| 2026-05-04 13:31 | 47.23016 | -114.79355 | 36909 ft | 467 kts | 110° |
| 2026-05-04 13:31 | 47.21066 | -114.70220 | 36909 ft | 468 kts | 109° |
| 2026-05-04 13:32 | 47.19213 | -114.61041 | 36911 ft | 468 kts | 109° |
| 2026-05-04 13:32 | 47.17394 | -114.51848 | 36914 ft | 468 kts | 109° |
| 2026-05-04 13:33 | 47.15600 | -114.42720 | 36918 ft | 468 kts | 109° |
| 2026-05-04 13:33 | 47.13748 | -114.33560 | 36921 ft | 468 kts | 109° |
| 2026-05-04 13:34 | 47.11863 | -114.24413 | 36924 ft | 468 kts | 109° |
| 2026-05-04 13:34 | 47.10003 | -114.15255 | 36926 ft | 468 kts | 109° |
| 2026-05-04 13:35 | 47.07188 | -114.01534 | 36931 ft | 467 kts | 109° |
| 2026-05-04 13:36 | 47.05327 | -113.92453 | 36931 ft | 468 kts | 110° |
| 2026-05-04 13:36 | 47.03443 | -113.83321 | 36931 ft | 468 kts | 110° |
| 2026-05-04 13:37 | 47.01514 | -113.74183 | 36931 ft | 468 kts | 110° |
| 2026-05-04 13:37 | 46.99599 | -113.65058 | 36932 ft | 468 kts | 110° |
| 2026-05-04 13:38 | 46.97682 | -113.55926 | 36932 ft | 468 kts | 110° |
| 2026-05-04 13:38 | 46.95772 | -113.46872 | 36933 ft | 468 kts | 110° |
| 2026-05-04 13:39 | 46.93860 | -113.37768 | 36934 ft | 469 kts | 110° |
| 2026-05-04 13:39 | 46.91943 | -113.28638 | 36935 ft | 468 kts | 110° |
| 2026-05-04 13:40 | 46.89984 | -113.19555 | 36944 ft | 468 kts | 111° |
| 2026-05-04 13:40 | 46.88002 | -113.10472 | 36947 ft | 468 kts | 111° |
| 2026-05-04 13:41 | 46.86035 | -113.01400 | 36949 ft | 469 kts | 111° |
| 2026-05-04 13:41 | 46.84080 | -112.92320 | 36951 ft | 469 kts | 111° |
| 2026-05-04 13:42 | 46.81147 | -112.78688 | 36952 ft | 469 kts | 111° |
| 2026-05-04 13:42 | 46.79150 | -112.69632 | 36953 ft | 469 kts | 111° |
| 2026-05-04 13:43 | 46.77129 | -112.60582 | 36954 ft | 469 kts | 112° |
| 2026-05-04 13:43 | 46.75129 | -112.51515 | 36954 ft | 469 kts | 111° |
| 2026-05-04 13:44 | 46.73141 | -112.42509 | 36954 ft | 469 kts | 112° |
| 2026-05-04 13:44 | 46.71143 | -112.33450 | 36955 ft | 470 kts | 111° |
| 2026-05-04 13:45 | 46.69129 | -112.24391 | 36957 ft | 469 kts | 112° |
| 2026-05-04 13:45 | 46.67066 | -112.15366 | 36955 ft | 469 kts | 112° |
| 2026-05-04 13:46 | 46.65041 | -112.06386 | 36954 ft | 469 kts | 112° |
| 2026-05-04 13:46 | 46.62992 | -111.97360 | 36952 ft | 469 kts | 113° |
| 2026-05-04 13:47 | 46.60960 | -111.88342 | 36952 ft | 470 kts | 112° |
| 2026-05-04 13:47 | 46.58888 | -111.79332 | 36953 ft | 470 kts | 113° |
| 2026-05-04 13:48 | 46.56809 | -111.70324 | 36955 ft | 470 kts | 113° |
| 2026-05-04 13:48 | 46.54720 | -111.61328 | 36958 ft | 470 kts | 113° |
| 2026-05-04 13:49 | 46.52653 | -111.52370 | 36960 ft | 470 kts | 113° |
| 2026-05-04 13:49 | 46.50562 | -111.43367 | 36963 ft | 470 kts | 113° |
| 2026-05-04 13:50 | 46.48479 | -111.34370 | 36965 ft | 471 kts | 113° |
| 2026-05-04 13:50 | 46.46387 | -111.25359 | 36968 ft | 471 kts | 114° |
| 2026-05-04 13:51 | 46.44254 | -111.16389 | 36970 ft | 471 kts | 114° |
| 2026-05-04 13:51 | 46.42116 | -111.07411 | 36964 ft | 471 kts | 114° |
| 2026-05-04 13:52 | 46.38932 | -110.93935 | 36964 ft | 472 kts | 114° |
| 2026-05-04 13:53 | 46.36793 | -110.84945 | 36965 ft | 472 kts | 115° |
| 2026-05-04 13:53 | 46.34630 | -110.75975 | 36968 ft | 472 kts | 115° |
| 2026-05-04 13:54 | 46.31392 | -110.62491 | 36973 ft | 473 kts | 115° |
| 2026-05-04 13:55 | 46.28114 | -110.49092 | 36972 ft | 473 kts | 116° |
| 2026-05-04 13:55 | 46.24833 | -110.35642 | 36967 ft | 473 kts | 116° |
| 2026-05-04 13:56 | 46.22658 | -110.26658 | 36966 ft | 473 kts | 116° |
| 2026-05-04 13:57 | 46.19338 | -110.13260 | 36965 ft | 472 kts | 116° |
| 2026-05-04 13:58 | 46.14931 | -109.95444 | 36964 ft | 473 kts | 116° |
| 2026-05-04 13:58 | 46.11611 | -109.82068 | 36962 ft | 472 kts | 117° |
| 2026-05-04 13:59 | 46.09359 | -109.73174 | 36961 ft | 472 kts | 117° |
| 2026-05-04 14:00 | 46.05979 | -109.59830 | 36960 ft | 473 kts | 117° |
| 2026-05-04 14:00 | 46.02611 | -109.46494 | 36959 ft | 473 kts | 117° |
| 2026-05-04 14:01 | 46.00339 | -109.37619 | 36958 ft | 473 kts | 117° |
| 2026-05-04 14:02 | 45.96938 | -109.24303 | 36956 ft | 472 kts | 117° |
| 2026-05-04 14:02 | 45.94692 | -109.15506 | 36955 ft | 471 kts | 117° |
| 2026-05-04 14:03 | 45.92392 | -109.06702 | 36954 ft | 471 kts | 118° |
| 2026-05-04 14:03 | 45.90094 | -108.97881 | 36953 ft | 471 kts | 118° |
| 2026-05-04 14:04 | 45.86646 | -108.84648 | 36953 ft | 472 kts | 118° |
| 2026-05-04 14:04 | 45.84353 | -108.75819 | 36952 ft | 472 kts | 118° |
| 2026-05-04 14:05 | 45.80889 | -108.62586 | 36952 ft | 471 kts | 118° |
| 2026-05-04 14:06 | 45.78851 | -108.55359 | 36952 ft | 470 kts | 120° |
| 2026-05-04 14:06 | 45.75861 | -108.45352 | 36952 ft | 470 kts | 121° |
| 2026-05-04 14:07 | 45.73285 | -108.36720 | 36952 ft | 471 kts | 121° |
| 2026-05-04 14:07 | 45.71157 | -108.29551 | 36952 ft | 471 kts | 120° |
| 2026-05-04 14:08 | 45.68594 | -108.20897 | 36952 ft | 472 kts | 120° |
| 2026-05-04 14:08 | 45.66037 | -108.12247 | 36951 ft | 472 kts | 120° |
| 2026-05-04 14:09 | 45.62149 | -107.99310 | 36951 ft | 472 kts | 121° |
| 2026-05-04 14:10 | 45.58250 | -107.86381 | 36951 ft | 472 kts | 121° |
| 2026-05-04 14:10 | 45.55643 | -107.77776 | 36951 ft | 472 kts | 121° |
| 2026-05-04 14:11 | 45.53060 | -107.69241 | 36951 ft | 472 kts | 121° |
| 2026-05-04 14:11 | 45.49135 | -107.56366 | 36951 ft | 472 kts | 121° |
| 2026-05-04 14:12 | 45.46525 | -107.47779 | 36951 ft | 472 kts | 121° |
| 2026-05-04 14:13 | 45.42609 | -107.34913 | 36952 ft | 472 kts | 121° |
| 2026-05-04 14:13 | 45.39950 | -107.26369 | 36952 ft | 472 kts | 121° |
| 2026-05-04 14:14 | 45.37306 | -107.17806 | 36953 ft | 472 kts | 121° |
| 2026-05-04 14:14 | 45.33319 | -107.04990 | 36954 ft | 473 kts | 121° |
| 2026-05-04 14:15 | 45.27996 | -106.87974 | 36958 ft | 473 kts | 122° |
| 2026-05-04 14:16 | 45.23983 | -106.75169 | 36959 ft | 473 kts | 121° |
| 2026-05-04 14:17 | 45.19975 | -106.62364 | 36958 ft | 473 kts | 122° |
| 2026-05-04 14:18 | 45.15898 | -106.49618 | 36956 ft | 474 kts | 122° |
| 2026-05-04 14:19 | 45.10454 | -106.32598 | 36956 ft | 474 kts | 122° |
| 2026-05-04 14:19 | 45.07721 | -106.24096 | 36956 ft | 474 kts | 122° |
| 2026-05-04 14:20 | 45.04984 | -106.15597 | 36957 ft | 474 kts | 122° |
| 2026-05-04 14:20 | 45.02251 | -106.07107 | 36960 ft | 474 kts | 122° |
| 2026-05-04 14:21 | 44.98492 | -105.94165 | 36966 ft | 481 kts | 116° |
| 2026-05-04 14:21 | 44.96511 | -105.85090 | 36966 ft | 485 kts | 113° |
| 2026-05-04 14:22 | 44.94660 | -105.75906 | 36963 ft | 486 kts | 112° |
| 2026-05-04 14:22 | 44.92730 | -105.66775 | 36963 ft | 485 kts | 114° |
| 2026-05-04 14:23 | 44.89679 | -105.53219 | 36965 ft | 485 kts | 115° |
| 2026-05-04 14:24 | 44.87623 | -105.44157 | 36972 ft | 485 kts | 114° |
| 2026-05-04 14:24 | 44.85601 | -105.35067 | 36974 ft | 486 kts | 114° |
| 2026-05-04 14:25 | 44.83538 | -105.25978 | 36976 ft | 486 kts | 114° |
| 2026-05-04 14:25 | 44.80459 | -105.12373 | 36978 ft | 486 kts | 114° |
| 2026-05-04 14:26 | 44.78400 | -105.03366 | 36980 ft | 487 kts | 114° |
| 2026-05-04 14:26 | 44.76334 | -104.94282 | 36983 ft | 487 kts | 114° |
| 2026-05-04 14:27 | 44.74257 | -104.85213 | 36986 ft | 488 kts | 114° |
| 2026-05-04 14:27 | 44.72168 | -104.76127 | 36988 ft | 488 kts | 114° |
| 2026-05-04 14:28 | 44.70077 | -104.67053 | 36991 ft | 488 kts | 114° |
| 2026-05-04 14:28 | 44.67988 | -104.58007 | 36992 ft | 489 kts | 114° |
| 2026-05-04 14:29 | 44.63747 | -104.39794 | 36991 ft | 489 kts | 114° |
| 2026-05-04 14:30 | 44.61618 | -104.30784 | 36988 ft | 489 kts | 114° |
| 2026-05-04 14:31 | 44.58405 | -104.17182 | 36982 ft | 489 kts | 114° |
| 2026-05-04 14:32 | 44.54072 | -103.99089 | 36974 ft | 489 kts | 114° |
| 2026-05-04 14:32 | 44.51915 | -103.90034 | 36973 ft | 489 kts | 114° |
| 2026-05-04 14:33 | 44.49747 | -103.80985 | 36972 ft | 489 kts | 114° |
| 2026-05-04 14:33 | 44.47543 | -103.71976 | 36972 ft | 489 kts | 114° |
| 2026-05-04 14:34 | 44.45352 | -103.62947 | 36968 ft | 490 kts | 114° |
| 2026-05-04 14:34 | 44.43157 | -103.53922 | 36955 ft | 490 kts | 114° |
| 2026-05-04 14:35 | 44.40951 | -103.44906 | 36939 ft | 490 kts | 114° |
| 2026-05-04 14:35 | 44.38739 | -103.35898 | 36933 ft | 490 kts | 114° |
| 2026-05-04 14:36 | 44.36543 | -103.26949 | 36931 ft | 490 kts | 114° |
| 2026-05-04 14:36 | 44.34335 | -103.17941 | 36923 ft | 489 kts | 114° |
| 2026-05-04 14:37 | 44.32132 | -103.08951 | 36912 ft | 489 kts | 114° |
| 2026-05-04 14:37 | 44.29888 | -102.99994 | 36901 ft | 488 kts | 114° |
| 2026-05-04 14:38 | 44.27643 | -102.91047 | 36894 ft | 488 kts | 114° |
| 2026-05-04 14:38 | 44.25414 | -102.82108 | 36893 ft | 487 kts | 114° |
| 2026-05-04 14:39 | 44.23153 | -102.73191 | 36892 ft | 487 kts | 114° |
| 2026-05-04 14:39 | 44.20922 | -102.64352 | 36913 ft | 486 kts | 114° |
| 2026-05-04 14:40 | 44.17539 | -102.51055 | 36915 ft | 485 kts | 114° |
| 2026-05-04 14:40 | 44.15263 | -102.42217 | 36912 ft | 484 kts | 114° |
| 2026-05-04 14:41 | 44.13010 | -102.33406 | 36906 ft | 483 kts | 114° |
| 2026-05-04 14:42 | 44.08462 | -102.15865 | 36895 ft | 481 kts | 114° |
| 2026-05-04 14:42 | 44.06211 | -102.07105 | 36894 ft | 481 kts | 114° |
| 2026-05-04 14:43 | 44.03940 | -101.98373 | 36896 ft | 480 kts | 114° |
| 2026-05-04 14:43 | 44.01666 | -101.89656 | 36895 ft | 480 kts | 114° |
| 2026-05-04 14:44 | 43.99405 | -101.80978 | 36894 ft | 480 kts | 114° |
| 2026-05-04 14:44 | 43.97122 | -101.72280 | 36893 ft | 479 kts | 115° |
| 2026-05-04 14:45 | 43.94817 | -101.63583 | 36893 ft | 479 kts | 114° |
| 2026-05-04 14:45 | 43.92503 | -101.54893 | 36892 ft | 479 kts | 115° |
| 2026-05-04 14:46 | 43.90185 | -101.46219 | 36892 ft | 479 kts | 114° |
| 2026-05-04 14:46 | 43.87899 | -101.37601 | 36892 ft | 479 kts | 115° |
| 2026-05-04 14:47 | 43.85559 | -101.28962 | 36891 ft | 479 kts | 114° |
| 2026-05-04 14:47 | 43.83247 | -101.20298 | 36890 ft | 478 kts | 114° |
| 2026-05-04 14:48 | 43.80903 | -101.11660 | 36889 ft | 478 kts | 114° |
| 2026-05-04 14:48 | 43.78556 | -101.03049 | 36888 ft | 478 kts | 115° |
| 2026-05-04 14:49 | 43.76229 | -100.94491 | 36887 ft | 478 kts | 114° |
| 2026-05-04 14:49 | 43.73881 | -100.85894 | 36886 ft | 478 kts | 114° |
| 2026-05-04 14:50 | 43.71530 | -100.77307 | 36886 ft | 478 kts | 114° |
| 2026-05-04 14:50 | 43.69178 | -100.68706 | 36886 ft | 478 kts | 114° |
| 2026-05-04 14:51 | 43.66834 | -100.60119 | 36886 ft | 478 kts | 114° |
| 2026-05-04 14:51 | 43.64464 | -100.51529 | 36881 ft | 478 kts | 115° |
| 2026-05-04 14:52 | 43.62079 | -100.42955 | 36880 ft | 478 kts | 115° |
| 2026-05-04 14:52 | 43.60081 | -100.35844 | 36880 ft | 478 kts | 115° |
| 2026-05-04 14:53 | 43.57699 | -100.27287 | 36879 ft | 478 kts | 115° |
| 2026-05-04 14:53 | 43.55289 | -100.18745 | 36878 ft | 478 kts | 115° |
| 2026-05-04 14:54 | 43.52863 | -100.10209 | 36879 ft | 478 kts | 115° |
| 2026-05-04 14:54 | 43.50461 | -100.01664 | 36881 ft | 478 kts | 115° |
| 2026-05-04 14:55 | 43.48009 | -99.93148 | 36882 ft | 478 kts | 116° |
| 2026-05-04 14:55 | 43.45472 | -99.84694 | 36882 ft | 477 kts | 117° |
| 2026-05-04 14:56 | 43.42914 | -99.76246 | 36882 ft | 477 kts | 117° |
| 2026-05-04 14:56 | 43.40361 | -99.67807 | 36881 ft | 477 kts | 117° |
| 2026-05-04 14:57 | 43.37825 | -99.59383 | 36881 ft | 477 kts | 117° |
| 2026-05-04 14:57 | 43.35314 | -99.50996 | 36883 ft | 477 kts | 117° |
| 2026-05-04 14:58 | 43.32754 | -99.42599 | 36884 ft | 476 kts | 117° |
| 2026-05-04 14:58 | 43.30182 | -99.34208 | 36885 ft | 476 kts | 117° |
| 2026-05-04 14:59 | 43.27627 | -99.25825 | 36873 ft | 476 kts | 117° |
| 2026-05-04 15:00 | 43.23788 | -99.13254 | 36866 ft | 476 kts | 118° |
| 2026-05-04 15:00 | 43.21209 | -99.04944 | 36864 ft | 475 kts | 118° |
| 2026-05-04 15:01 | 43.17334 | -98.92413 | 36860 ft | 475 kts | 118° |
| 2026-05-04 15:01 | 43.14775 | -98.84068 | 36858 ft | 475 kts | 118° |
| 2026-05-04 15:02 | 43.12178 | -98.75750 | 36856 ft | 475 kts | 119° |
| 2026-05-04 15:02 | 43.09586 | -98.67502 | 36854 ft | 475 kts | 119° |
| 2026-05-04 15:03 | 43.06987 | -98.59192 | 36856 ft | 474 kts | 119° |
| 2026-05-04 15:03 | 43.04396 | -98.50890 | 36858 ft | 474 kts | 119° |
| 2026-05-04 15:04 | 43.01771 | -98.42630 | 36855 ft | 474 kts | 120° |
| 2026-05-04 15:04 | 42.99143 | -98.34373 | 36854 ft | 474 kts | 120° |
| 2026-05-04 15:05 | 42.96532 | -98.26127 | 36853 ft | 473 kts | 120° |
| 2026-05-04 15:05 | 42.93928 | -98.17858 | 36853 ft | 473 kts | 120° |
| 2026-05-04 15:06 | 42.91294 | -98.09645 | 36855 ft | 472 kts | 120° |
| 2026-05-04 15:07 | 42.87351 | -97.97396 | 36856 ft | 472 kts | 121° |
| 2026-05-04 15:07 | 42.84729 | -97.89199 | 36850 ft | 472 kts | 122° |
| 2026-05-04 15:08 | 42.82078 | -97.81027 | 36847 ft | 471 kts | 122° |
| 2026-05-04 15:08 | 42.79424 | -97.72870 | 36846 ft | 471 kts | 122° |
| 2026-05-04 15:09 | 42.76781 | -97.64716 | 36845 ft | 471 kts | 122° |
| 2026-05-04 15:09 | 42.74152 | -97.56550 | 36848 ft | 471 kts | 122° |
| 2026-05-04 15:10 | 42.70167 | -97.44402 | 36848 ft | 470 kts | 123° |
| 2026-05-04 15:11 | 42.66162 | -97.32250 | 36848 ft | 470 kts | 123° |
| 2026-05-04 15:11 | 42.63509 | -97.24129 | 36846 ft | 470 kts | 123° |
| 2026-05-04 15:12 | 42.60835 | -97.16046 | 36846 ft | 469 kts | 124° |
| 2026-05-04 15:12 | 42.58138 | -97.07967 | 36846 ft | 469 kts | 124° |
| 2026-05-04 15:13 | 42.55458 | -96.99896 | 36847 ft | 469 kts | 124° |
| 2026-05-04 15:13 | 42.52788 | -96.91832 | 36850 ft | 468 kts | 124° |
| 2026-05-04 15:14 | 42.50090 | -96.83805 | 36854 ft | 468 kts | 124° |
| 2026-05-04 15:14 | 42.47397 | -96.75782 | 36857 ft | 468 kts | 124° |
| 2026-05-04 15:15 | 42.44711 | -96.67754 | 36860 ft | 467 kts | 125° |
| 2026-05-04 15:15 | 42.42014 | -96.59822 | 36864 ft | 466 kts | 125° |
| 2026-05-04 15:16 | 42.37956 | -96.47861 | 36870 ft | 465 kts | 125° |
| 2026-05-04 15:17 | 42.33930 | -96.35939 | 36872 ft | 463 kts | 126° |
| 2026-05-04 15:17 | 42.29892 | -96.24150 | 36873 ft | 462 kts | 126° |
| 2026-05-04 15:18 | 42.27206 | -96.16272 | 36875 ft | 461 kts | 126° |
| 2026-05-04 15:19 | 42.23153 | -96.04510 | 36890 ft | 460 kts | 126° |
| 2026-05-04 15:19 | 42.19092 | -95.92802 | 36900 ft | 459 kts | 127° |
| 2026-05-04 15:20 | 42.16380 | -95.85015 | 36906 ft | 459 kts | 127° |
| 2026-05-04 15:20 | 42.13674 | -95.77234 | 36912 ft | 459 kts | 127° |
| 2026-05-04 15:21 | 42.10966 | -95.69433 | 36919 ft | 460 kts | 127° |
| 2026-05-04 15:22 | 42.06904 | -95.57731 | 36929 ft | 460 kts | 127° |
| 2026-05-04 15:22 | 42.02798 | -95.46108 | 36937 ft | 461 kts | 127° |
| 2026-05-04 15:23 | 42.00044 | -95.38305 | 36941 ft | 461 kts | 127° |
| 2026-05-04 15:23 | 41.97274 | -95.30509 | 36942 ft | 462 kts | 126° |
| 2026-05-04 15:24 | 41.91768 | -95.14913 | 36947 ft | 462 kts | 126° |
| 2026-05-04 15:25 | 41.89005 | -95.07120 | 36952 ft | 463 kts | 126° |
| 2026-05-04 15:26 | 41.84821 | -94.95476 | 36958 ft | 464 kts | 126° |
| 2026-05-04 15:26 | 41.80617 | -94.83773 | 36965 ft | 465 kts | 126° |
| 2026-05-04 15:27 | 41.76395 | -94.72042 | 36967 ft | 467 kts | 126° |
| 2026-05-04 15:28 | 41.72127 | -94.60325 | 36970 ft | 468 kts | 126° |
| 2026-05-04 15:29 | 41.67854 | -94.48548 | 36979 ft | 469 kts | 126° |
| 2026-05-04 15:30 | 41.57742 | -94.21051 | 36998 ft | 472 kts | 126° |
| 2026-05-04 15:31 | 41.53399 | -94.09238 | 37010 ft | 472 kts | 126° |
| 2026-05-04 15:32 | 41.47519 | -93.88548 | 37036 ft | 493 kts | 111° |
| 2026-05-04 15:34 | 41.44019 | -93.66114 | 37042 ft | 491 kts | 113° |
| 2026-05-04 15:34 | 41.40736 | -93.53364 | 37046 ft | 482 kts | 121° |
| 2026-05-04 15:35 | 41.36940 | -93.40965 | 37057 ft | 483 kts | 120° |
| 2026-05-04 15:36 | 41.33352 | -93.28400 | 37063 ft | 485 kts | 119° |
| 2026-05-04 15:36 | 41.30984 | -93.19994 | 37064 ft | 485 kts | 119° |
| 2026-05-04 15:37 | 41.28975 | -93.13038 | 37063 ft | 485 kts | 120° |
| 2026-05-04 15:37 | 41.26127 | -93.03261 | 37064 ft | 486 kts | 120° |
| 2026-05-04 15:38 | 41.24119 | -92.96270 | 37068 ft | 487 kts | 119° |
| 2026-05-04 15:38 | 41.21689 | -92.87872 | 37081 ft | 487 kts | 119° |
| 2026-05-04 15:39 | 41.19238 | -92.79473 | 37089 ft | 487 kts | 119° |
| 2026-05-04 15:40 | 41.15573 | -92.66933 | 37092 ft | 488 kts | 119° |
| 2026-05-04 15:40 | 41.13120 | -92.58538 | 37092 ft | 489 kts | 119° |
| 2026-05-04 15:41 | 41.10658 | -92.50128 | 37092 ft | 489 kts | 119° |
| 2026-05-04 15:41 | 41.08190 | -92.41703 | 37092 ft | 489 kts | 119° |
| 2026-05-04 15:42 | 41.05714 | -92.33294 | 37093 ft | 490 kts | 120° |
| 2026-05-04 15:42 | 41.03193 | -92.24900 | 37095 ft | 490 kts | 119° |
| 2026-05-04 15:43 | 41.00710 | -92.16487 | 37100 ft | 490 kts | 119° |
| 2026-05-04 15:43 | 40.98186 | -92.08100 | 37102 ft | 490 kts | 120° |
| 2026-05-04 15:44 | 40.95679 | -91.99786 | 37103 ft | 490 kts | 119° |
| 2026-05-04 15:44 | 40.93181 | -91.91377 | 37103 ft | 491 kts | 119° |
| 2026-05-04 15:45 | 40.90624 | -91.82980 | 37109 ft | 493 kts | 119° |
| 2026-05-04 15:45 | 40.88081 | -91.74546 | 37114 ft | 494 kts | 119° |
| 2026-05-04 15:46 | 40.85518 | -91.66112 | 37119 ft | 494 kts | 119° |
| 2026-05-04 15:46 | 40.82932 | -91.57690 | 37122 ft | 495 kts | 119° |
| 2026-05-04 15:47 | 40.80368 | -91.49250 | 37123 ft | 494 kts | 119° |
| 2026-05-04 15:47 | 40.77782 | -91.40850 | 37127 ft | 495 kts | 119° |
| 2026-05-04 15:48 | 40.75182 | -91.32438 | 37131 ft | 495 kts | 119° |
| 2026-05-04 15:48 | 40.71282 | -91.19810 | 37132 ft | 496 kts | 119° |
| 2026-05-04 15:49 | 40.68698 | -91.11440 | 37133 ft | 496 kts | 119° |
| 2026-05-04 15:49 | 40.66098 | -91.03019 | 37137 ft | 497 kts | 119° |
| 2026-05-04 15:50 | 40.63490 | -90.94581 | 37145 ft | 497 kts | 119° |
| 2026-05-04 15:50 | 40.60834 | -90.86186 | 37156 ft | 497 kts | 120° |
| 2026-05-04 15:51 | 40.58195 | -90.77751 | 37169 ft | 498 kts | 119° |
| 2026-05-04 15:51 | 40.55543 | -90.69350 | 37179 ft | 498 kts | 120° |
| 2026-05-04 15:52 | 40.52886 | -90.60944 | 37182 ft | 499 kts | 119° |
| 2026-05-04 15:52 | 40.50224 | -90.52518 | 37182 ft | 499 kts | 119° |
| 2026-05-04 15:53 | 40.47532 | -90.44103 | 37181 ft | 499 kts | 120° |
| 2026-05-04 15:53 | 40.44841 | -90.35704 | 37184 ft | 499 kts | 119° |
| 2026-05-04 15:54 | 40.42191 | -90.27335 | 37186 ft | 499 kts | 119° |
| 2026-05-04 15:54 | 40.39504 | -90.18933 | 37191 ft | 499 kts | 119° |
| 2026-05-04 15:55 | 40.36809 | -90.10539 | 37195 ft | 499 kts | 119° |
| 2026-05-04 15:55 | 40.34118 | -90.02151 | 37197 ft | 499 kts | 119° |
| 2026-05-04 15:56 | 40.31425 | -89.93755 | 37199 ft | 499 kts | 119° |
| 2026-05-04 15:56 | 40.28685 | -89.85393 | 37201 ft | 499 kts | 120° |
| 2026-05-04 15:57 | 40.25962 | -89.77016 | 37204 ft | 500 kts | 119° |
| 2026-05-04 15:57 | 40.23213 | -89.68663 | 37207 ft | 499 kts | 120° |
| 2026-05-04 15:58 | 40.20481 | -89.60366 | 37218 ft | 500 kts | 119° |
| 2026-05-04 15:58 | 40.17748 | -89.51989 | 37222 ft | 500 kts | 120° |
| 2026-05-04 15:59 | 40.14981 | -89.43628 | 37222 ft | 501 kts | 120° |
| 2026-05-04 15:59 | 40.12205 | -89.35279 | 37222 ft | 501 kts | 120° |
| 2026-05-04 16:00 | 40.09436 | -89.26908 | 37223 ft | 502 kts | 119° |
| 2026-05-04 16:00 | 40.06658 | -89.18534 | 37227 ft | 503 kts | 120° |
| 2026-05-04 16:01 | 40.03867 | -89.10159 | 37234 ft | 503 kts | 119° |
| 2026-05-04 16:01 | 40.01065 | -89.01790 | 37241 ft | 504 kts | 119° |
| 2026-05-04 16:02 | 39.98275 | -88.93453 | 37247 ft | 504 kts | 118° |
| 2026-05-04 16:03 | 39.94090 | -88.80891 | 37253 ft | 503 kts | 119° |
| 2026-05-04 16:03 | 39.91244 | -88.72553 | 37255 ft | 504 kts | 119° |
| 2026-05-04 16:04 | 39.88428 | -88.64195 | 37258 ft | 504 kts | 118° |
| 2026-05-04 16:04 | 39.84149 | -88.51662 | 37268 ft | 505 kts | 119° |
| 2026-05-04 16:05 | 39.81280 | -88.43315 | 37278 ft | 506 kts | 119° |
| 2026-05-04 16:06 | 39.76986 | -88.30732 | 37285 ft | 507 kts | 119° |
| 2026-05-04 16:07 | 39.71255 | -88.14018 | 37293 ft | 508 kts | 119° |
| 2026-05-04 16:08 | 39.65442 | -87.97295 | 37300 ft | 508 kts | 119° |
| 2026-05-04 16:09 | 39.58154 | -87.76389 | 37308 ft | 508 kts | 119° |